sensor_id;sensor_type;location;lat;lon;timestamp;P1;durP1;ratioP1;P2;durP2;ratioP2
55776;SDS011;54079;44.540;18.784;2022-11-13T16:37:16;10.68;;;7.45;;
55776;SDS011;54079;44.540;18.784;2022-11-13T16:39:44;10.80;;;9.45;;
55776;SDS011;54079;44.540;18.784;2022-11-13T16:42:11;9.95;;;8.63;;
55776;SDS011;54079;44.540;18.784;2022-11-13T16:44:38;10.65;;;9.52;;
55776;SDS011;54079;44.540;18.784;2022-11-13T16:47:05;11.38;;;8.32;;
55776;SDS011;54079;44.540;18.784;2022-11-13T16:49:31;9.43;;;7.90;;
55776;SDS011;54079;44.540;18.784;2022-11-13T16:51:57;11.30;;;9.43;;
55776;SDS011;54079;44.540;18.784;2022-11-13T16:54:24;13.68;;;9.57;;
55776;SDS011;54079;44.540;18.784;2022-11-13T16:56:50;13.82;;;10.48;;
55776;SDS011;54079;44.540;18.784;2022-11-13T16:59:16;11.70;;;9.30;;
55776;SDS011;54079;44.540;18.784;2022-11-13T17:01:42;10.60;;;9.10;;
55776;SDS011;54079;44.540;18.784;2022-11-13T17:04:09;11.05;;;9.95;;
55776;SDS011;54079;44.540;18.784;2022-11-13T17:06:38;11.25;;;9.30;;
55776;SDS011;54079;44.540;18.784;2022-11-13T17:09:04;12.18;;;9.32;;
55776;SDS011;54079;44.540;18.784;2022-11-13T17:11:31;14.27;;;11.32;;
55776;SDS011;54079;44.540;18.784;2022-11-13T17:14:01;14.23;;;11.48;;
55776;SDS011;54079;44.540;18.784;2022-11-13T17:16:28;18.90;;;14.40;;
55776;SDS011;54079;44.540;18.784;2022-11-13T17:18:54;15.93;;;13.82;;
55776;SDS011;54079;44.540;18.784;2022-11-13T17:21:22;16.55;;;13.43;;
55776;SDS011;54079;44.540;18.784;2022-11-13T17:26:21;23.35;;;16.75;;
55776;SDS011;54079;44.540;18.784;2022-11-13T17:28:48;24.65;;;18.23;;
55776;SDS011;54079;44.540;18.784;2022-11-13T17:31:15;21.02;;;15.75;;
55776;SDS011;54079;44.540;18.784;2022-11-13T17:33:41;23.27;;;16.23;;
55776;SDS011;54079;44.540;18.784;2022-11-13T17:36:07;23.92;;;16.58;;
55776;SDS011;54079;44.540;18.784;2022-11-13T17:38:34;17.73;;;14.45;;
55776;SDS011;54079;44.540;18.784;2022-11-13T17:41:07;20.73;;;16.45;;
55776;SDS011;54079;44.540;18.784;2022-11-13T17:43:36;20.55;;;14.15;;
55776;SDS011;54079;44.540;18.784;2022-11-13T17:46:03;19.70;;;15.73;;
55776;SDS011;54079;44.540;18.784;2022-11-13T17:48:33;21.55;;;15.68;;
55776;SDS011;54079;44.540;18.784;2022-11-13T17:51:01;21.90;;;16.85;;
55776;SDS011;54079;44.540;18.784;2022-11-13T17:53:28;22.23;;;16.08;;
55776;SDS011;54079;44.540;18.784;2022-11-13T17:55:56;34.25;;;24.52;;
55776;SDS011;54079;44.540;18.784;2022-11-13T17:58:23;60.67;;;42.92;;
55776;SDS011;54079;44.540;18.784;2022-11-13T18:00:50;67.10;;;50.00;;
55776;SDS011;54079;44.540;18.784;2022-11-13T18:03:16;67.88;;;50.22;;
55776;SDS011;54079;44.540;18.784;2022-11-13T18:05:43;54.35;;;38.30;;
55776;SDS011;54079;44.540;18.784;2022-11-13T18:08:09;58.72;;;44.53;;
55776;SDS011;54079;44.540;18.784;2022-11-13T18:10:36;52.90;;;36.53;;
55776;SDS011;54079;44.540;18.784;2022-11-13T18:13:04;56.22;;;41.15;;
55776;SDS011;54079;44.540;18.784;2022-11-13T18:15:32;49.65;;;36.22;;
55776;SDS011;54079;44.540;18.784;2022-11-13T18:18:00;51.90;;;37.15;;
55776;SDS011;54079;44.540;18.784;2022-11-13T18:20:26;50.00;;;33.50;;
55776;SDS011;54079;44.540;18.784;2022-11-13T18:22:53;34.95;;;25.65;;
55776;SDS011;54079;44.540;18.784;2022-11-13T18:25:19;27.95;;;21.83;;
55776;SDS011;54079;44.540;18.784;2022-11-13T18:27:45;27.30;;;20.67;;
55776;SDS011;54079;44.540;18.784;2022-11-13T18:30:11;25.15;;;17.85;;
55776;SDS011;54079;44.540;18.784;2022-11-13T18:32:37;25.33;;;20.13;;
55776;SDS011;54079;44.540;18.784;2022-11-13T18:35:04;20.92;;;15.48;;
55776;SDS011;54079;44.540;18.784;2022-11-13T18:37:30;22.17;;;16.00;;
55776;SDS011;54079;44.540;18.784;2022-11-13T18:39:56;20.75;;;15.43;;
55776;SDS011;54079;44.540;18.784;2022-11-13T18:42:26;19.17;;;14.82;;
55776;SDS011;54079;44.540;18.784;2022-11-13T18:44:52;20.80;;;16.10;;
55776;SDS011;54079;44.540;18.784;2022-11-13T18:47:18;24.27;;;18.42;;
55776;SDS011;54079;44.540;18.784;2022-11-13T18:49:44;29.00;;;21.42;;
55776;SDS011;54079;44.540;18.784;2022-11-13T18:52:10;24.20;;;18.85;;
55776;SDS011;54079;44.540;18.784;2022-11-13T18:54:36;29.02;;;20.95;;
55776;SDS011;54079;44.540;18.784;2022-11-13T18:57:02;30.80;;;23.60;;
55776;SDS011;54079;44.540;18.784;2022-11-13T18:59:28;37.58;;;25.55;;
55776;SDS011;54079;44.540;18.784;2022-11-13T19:01:54;48.58;;;33.25;;
55776;SDS011;54079;44.540;18.784;2022-11-13T19:04:21;47.50;;;32.92;;
55776;SDS011;54079;44.540;18.784;2022-11-13T19:06:47;63.90;;;43.42;;
55776;SDS011;54079;44.540;18.784;2022-11-13T19:09:14;57.70;;;40.35;;
55776;SDS011;54079;44.540;18.784;2022-11-13T19:11:41;45.80;;;33.47;;
55776;SDS011;54079;44.540;18.784;2022-11-13T19:14:07;43.83;;;31.40;;
55776;SDS011;54079;44.540;18.784;2022-11-13T19:16:36;43.67;;;31.83;;
55776;SDS011;54079;44.540;18.784;2022-11-13T19:19:04;36.00;;;28.00;;
55776;SDS011;54079;44.540;18.784;2022-11-13T19:21:33;31.92;;;23.25;;
55776;SDS011;54079;44.540;18.784;2022-11-13T19:24:00;34.35;;;25.35;;
55776;SDS011;54079;44.540;18.784;2022-11-13T19:26:26;51.55;;;35.17;;
55776;SDS011;54079;44.540;18.784;2022-11-13T19:28:53;47.90;;;34.85;;
55776;SDS011;54079;44.540;18.784;2022-11-13T19:31:21;55.15;;;37.30;;
55776;SDS011;54079;44.540;18.784;2022-11-13T19:33:56;44.25;;;32.00;;
55776;SDS011;54079;44.540;18.784;2022-11-13T19:36:27;48.72;;;35.60;;
55776;SDS011;54079;44.540;18.784;2022-11-13T19:38:55;35.13;;;26.52;;
55776;SDS011;54079;44.540;18.784;2022-11-13T19:41:21;33.85;;;25.58;;
55776;SDS011;54079;44.540;18.784;2022-11-13T19:43:48;32.40;;;24.48;;
55776;SDS011;54079;44.540;18.784;2022-11-13T19:46:15;32.85;;;23.63;;
55776;SDS011;54079;44.540;18.784;2022-11-13T19:48:43;29.42;;;23.02;;
55776;SDS011;54079;44.540;18.784;2022-11-13T19:51:27;32.63;;;25.85;;
55776;SDS011;54079;44.540;18.784;2022-11-13T19:53:54;46.72;;;35.60;;
55776;SDS011;54079;44.540;18.784;2022-11-13T19:56:23;41.53;;;30.65;;
55776;SDS011;54079;44.540;18.784;2022-11-13T19:58:51;50.22;;;36.95;;
55776;SDS011;54079;44.540;18.784;2022-11-13T20:01:21;48.50;;;31.80;;
55776;SDS011;54079;44.540;18.784;2022-11-13T20:03:59;42.67;;;32.00;;
55776;SDS011;54079;44.540;18.784;2022-11-13T20:06:26;49.20;;;34.55;;
55776;SDS011;54079;44.540;18.784;2022-11-13T20:08:53;57.30;;;38.42;;
55776;SDS011;54079;44.540;18.784;2022-11-13T20:11:19;48.65;;;34.38;;
55776;SDS011;54079;44.540;18.784;2022-11-13T20:13:45;45.97;;;32.40;;
55776;SDS011;54079;44.540;18.784;2022-11-13T20:16:12;43.17;;;31.20;;
55776;SDS011;54079;44.540;18.784;2022-11-13T20:18:39;36.65;;;27.75;;
55776;SDS011;54079;44.540;18.784;2022-11-13T20:21:06;30.92;;;22.90;;
55776;SDS011;54079;44.540;18.784;2022-11-13T20:23:32;32.60;;;25.15;;
55776;SDS011;54079;44.540;18.784;2022-11-13T20:26:06;45.40;;;32.50;;
55776;SDS011;54079;44.540;18.784;2022-11-13T20:28:34;36.65;;;26.50;;
55776;SDS011;54079;44.540;18.784;2022-11-13T20:31:04;49.38;;;35.15;;
55776;SDS011;54079;44.540;18.784;2022-11-13T20:33:40;42.58;;;31.77;;
55776;SDS011;54079;44.540;18.784;2022-11-13T20:36:06;46.78;;;34.17;;
55776;SDS011;54079;44.540;18.784;2022-11-13T20:38:32;53.65;;;40.05;;
55776;SDS011;54079;44.540;18.784;2022-11-13T20:41:02;61.20;;;44.00;;
55776;SDS011;54079;44.540;18.784;2022-11-13T20:43:29;74.03;;;46.97;;
55776;SDS011;54079;44.540;18.784;2022-11-13T20:46:06;64.20;;;43.92;;
55776;SDS011;54079;44.540;18.784;2022-11-13T20:48:36;72.95;;;50.78;;
55776;SDS011;54079;44.540;18.784;2022-11-13T20:51:14;61.30;;;43.08;;
55776;SDS011;54079;44.540;18.784;2022-11-13T20:53:42;69.72;;;51.10;;
55776;SDS011;54079;44.540;18.784;2022-11-13T20:56:08;91.75;;;63.55;;
55776;SDS011;54079;44.540;18.784;2022-11-13T20:58:34;81.50;;;52.65;;
55776;SDS011;54079;44.540;18.784;2022-11-13T21:01:04;61.08;;;43.08;;
55776;SDS011;54079;44.540;18.784;2022-11-13T21:03:36;67.80;;;44.17;;
55776;SDS011;54079;44.540;18.784;2022-11-13T21:06:03;58.72;;;41.55;;
55776;SDS011;54079;44.540;18.784;2022-11-13T21:08:29;64.55;;;45.63;;
55776;SDS011;54079;44.540;18.784;2022-11-13T21:10:57;79.28;;;51.53;;
55776;SDS011;54079;44.540;18.784;2022-11-13T21:13:24;60.58;;;40.63;;
55776;SDS011;54079;44.540;18.784;2022-11-13T21:15:51;63.28;;;43.72;;
55776;SDS011;54079;44.540;18.784;2022-11-13T21:18:17;72.53;;;52.03;;
55776;SDS011;54079;44.540;18.784;2022-11-13T21:20:44;74.80;;;51.97;;
55776;SDS011;54079;44.540;18.784;2022-11-13T21:23:11;74.78;;;52.63;;
55776;SDS011;54079;44.540;18.784;2022-11-13T21:25:37;75.10;;;48.72;;
55776;SDS011;54079;44.540;18.784;2022-11-13T21:28:03;74.78;;;50.50;;
55776;SDS011;54079;44.540;18.784;2022-11-13T21:30:30;72.35;;;49.15;;
55776;SDS011;54079;44.540;18.784;2022-11-13T21:32:57;76.30;;;56.92;;
55776;SDS011;54079;44.540;18.784;2022-11-13T21:35:24;67.70;;;47.28;;
55776;SDS011;54079;44.540;18.784;2022-11-13T21:37:53;86.60;;;60.70;;
55776;SDS011;54079;44.540;18.784;2022-11-13T21:40:20;79.80;;;53.90;;
55776;SDS011;54079;44.540;18.784;2022-11-13T21:42:46;76.72;;;53.03;;
55776;SDS011;54079;44.540;18.784;2022-11-13T21:45:12;65.78;;;48.13;;
55776;SDS011;54079;44.540;18.784;2022-11-13T21:47:38;68.20;;;49.17;;
55776;SDS011;54079;44.540;18.784;2022-11-13T21:50:04;79.72;;;54.70;;
55776;SDS011;54079;44.540;18.784;2022-11-13T21:52:31;92.50;;;61.70;;
55776;SDS011;54079;44.540;18.784;2022-11-13T21:54:57;95.00;;;61.38;;
55776;SDS011;54079;44.540;18.784;2022-11-13T21:57:23;72.07;;;52.75;;
55776;SDS011;54079;44.540;18.784;2022-11-13T21:59:51;69.10;;;47.58;;
55776;SDS011;54079;44.540;18.784;2022-11-13T22:02:16;68.47;;;47.38;;
55776;SDS011;54079;44.540;18.784;2022-11-13T22:04:42;65.68;;;47.47;;
55776;SDS011;54079;44.540;18.784;2022-11-13T22:07:08;61.95;;;45.42;;
55776;SDS011;54079;44.540;18.784;2022-11-13T22:09:34;74.05;;;53.20;;
55776;SDS011;54079;44.540;18.784;2022-11-13T22:12:01;65.63;;;44.83;;
55776;SDS011;54079;44.540;18.784;2022-11-13T22:14:27;73.82;;;51.72;;
55776;SDS011;54079;44.540;18.784;2022-11-13T22:16:53;78.15;;;55.30;;
55776;SDS011;54079;44.540;18.784;2022-11-13T22:19:19;45.88;;;33.80;;
55776;SDS011;54079;44.540;18.784;2022-11-13T22:21:45;59.00;;;42.17;;
55776;SDS011;54079;44.540;18.784;2022-11-13T22:24:12;60.15;;;44.72;;
55776;SDS011;54079;44.540;18.784;2022-11-13T22:26:39;59.50;;;41.78;;
55776;SDS011;54079;44.540;18.784;2022-11-13T22:29:07;57.67;;;41.75;;
55776;SDS011;54079;44.540;18.784;2022-11-13T22:31:33;51.60;;;36.08;;
55776;SDS011;54079;44.540;18.784;2022-11-13T22:34:00;44.13;;;32.67;;
55776;SDS011;54079;44.540;18.784;2022-11-13T22:36:27;47.95;;;33.58;;
55776;SDS011;54079;44.540;18.784;2022-11-13T22:38:55;53.90;;;40.70;;
55776;SDS011;54079;44.540;18.784;2022-11-13T22:41:22;57.50;;;40.13;;
55776;SDS011;54079;44.540;18.784;2022-11-13T22:43:57;52.15;;;39.50;;
55776;SDS011;54079;44.540;18.784;2022-11-13T22:46:28;52.08;;;37.50;;
55776;SDS011;54079;44.540;18.784;2022-11-13T22:48:56;52.97;;;40.15;;
55776;SDS011;54079;44.540;18.784;2022-11-13T22:51:29;48.60;;;36.63;;
55776;SDS011;54079;44.540;18.784;2022-11-13T22:54:03;52.60;;;39.72;;
55776;SDS011;54079;44.540;18.784;2022-11-13T22:56:34;49.05;;;36.83;;
55776;SDS011;54079;44.540;18.784;2022-11-13T22:59:02;50.53;;;34.60;;
55776;SDS011;54079;44.540;18.784;2022-11-13T23:01:30;44.63;;;32.50;;
55776;SDS011;54079;44.540;18.784;2022-11-13T23:04:00;45.15;;;32.50;;
55776;SDS011;54079;44.540;18.784;2022-11-13T23:06:29;48.63;;;34.63;;
55776;SDS011;54079;44.540;18.784;2022-11-13T23:08:56;42.38;;;32.78;;
55776;SDS011;54079;44.540;18.784;2022-11-13T23:11:33;37.67;;;27.92;;
55776;SDS011;54079;44.540;18.784;2022-11-13T23:14:02;41.67;;;31.67;;
55776;SDS011;54079;44.540;18.784;2022-11-13T23:16:30;49.17;;;35.45;;
55776;SDS011;54079;44.540;18.784;2022-11-13T23:18:57;46.65;;;34.80;;
55776;SDS011;54079;44.540;18.784;2022-11-13T23:21:24;41.97;;;33.53;;
55776;SDS011;54079;44.540;18.784;2022-11-13T23:23:51;49.90;;;37.58;;
55776;SDS011;54079;44.540;18.784;2022-11-13T23:26:18;50.03;;;35.95;;
55776;SDS011;54079;44.540;18.784;2022-11-13T23:28:44;48.03;;;35.42;;
55776;SDS011;54079;44.540;18.784;2022-11-13T23:31:10;48.45;;;34.25;;
55776;SDS011;54079;44.540;18.784;2022-11-13T23:33:36;41.35;;;31.60;;
55776;SDS011;54079;44.540;18.784;2022-11-13T23:36:04;41.17;;;31.75;;
55776;SDS011;54079;44.540;18.784;2022-11-13T23:38:31;39.65;;;28.50;;
55776;SDS011;54079;44.540;18.784;2022-11-13T23:40:57;38.38;;;30.15;;
55776;SDS011;54079;44.540;18.784;2022-11-13T23:43:24;39.67;;;28.88;;
55776;SDS011;54079;44.540;18.784;2022-11-13T23:45:52;38.53;;;29.02;;
55776;SDS011;54079;44.540;18.784;2022-11-13T23:48:18;41.85;;;33.05;;
55776;SDS011;54079;44.540;18.784;2022-11-13T23:50:44;38.40;;;29.65;;
55776;SDS011;54079;44.540;18.784;2022-11-13T23:53:11;34.70;;;26.67;;
55776;SDS011;54079;44.540;18.784;2022-11-13T23:55:38;35.15;;;27.48;;
55776;SDS011;54079;44.540;18.784;2022-11-13T23:58:05;36.72;;;28.80;;
